Time;durP1;ratioP1;P1;durP2;ratioP2;P2;SDS_P1;SDS_P2;PMS_P1;PMS_P2;Temp;Humidity;BMP_temperature;BMP_pressure;BME280_temperature;BME280_humidity;BME280_pressure;Samples;Min_cycle;Max_cycle;Signal;HPM_P1;HPM_P2
2020/12/07 00:02:54;;;;;;;24.38;11.27;;;1.30;99.90;;;;;;21011530;28;20279;-77
2020/12/07 00:12:55;;;;;;;23.88;10.68;;;1.10;99.90;;;;;;21010654;28;20047;-77
2020/12/07 00:22:56;;;;;;;;;;;1.20;99.90;;;;;;21010768;28;20035;-77
2020/12/07 00:32:57;;;;;;;22.00;10.80;;;1.20;99.90;;;;;;21011270;28;19912;-77
2020/12/07 00:42:58;;;;;;;20.38;10.60;;;1.10;99.90;;;;;;21006167;28;20062;-77
2020/12/07 00:52:59;;;;;;;;;;;1.10;99.90;;;;;;21016951;28;20077;-78
2020/12/07 01:03:00;;;;;;;20.73;9.45;;;1.20;99.90;;;;;;21012085;28;20336;-77
2020/12/07 01:13:01;;;;;;;;;;;1.30;99.90;;;;;;21006735;28;20024;-77
2020/12/07 01:23:02;;;;;;;17.90;9.43;;;1.30;99.90;;;;;;21006919;28;20082;-78
2020/12/07 01:33:03;;;;;;;15.38;8.15;;;1.30;99.90;;;;;;21005612;28;20052;-77
2020/12/07 01:43:06;;;;;;;14.65;8.38;;;1.30;99.90;;;;;;21002950;28;20029;-78
2020/12/07 01:53:10;;;;;;;18.70;9.40;;;1.30;99.90;;;;;;21019671;28;20089;-77
2020/12/07 02:03:11;;;;;;;20.38;9.98;;;1.20;99.90;;;;;;21006130;28;20045;-77
2020/12/07 02:13:14;;;;;;;26.55;11.68;;;1.20;99.90;;;;;;21012347;28;20052;-77
2020/12/07 02:23:17;;;;;;;26.10;10.95;;;1.00;99.90;;;;;;21022201;28;20028;-78
2020/12/07 02:33:31;;;;;;;22.48;9.98;;;1.10;99.90;;;;;;21037614;28;20081;-79
2020/12/07 02:43:31;;;;;;;;;;;1.20;99.90;;;;;;21009359;28;20029;-78
2020/12/07 02:53:33;;;;;;;24.40;11.63;;;1.10;99.90;;;;;;21022273;28;19916;-78
2020/12/07 03:03:35;;;;;;;25.17;12.38;;;1.10;99.90;;;;;;21021860;28;20119;-79
2020/12/07 03:13:36;;;;;;;22.30;10.25;;;1.00;99.90;;;;;;21022912;28;20033;-79
2020/12/07 03:23:38;;;;;;;18.15;8.68;;;1.00;99.90;;;;;;21019414;28;20112;-78
2020/12/07 03:33:47;;;;;;;19.25;9.40;;;1.20;99.90;;;;;;21052163;22;20043;-81
2020/12/07 03:43:50;;;;;;;13.60;7.75;;;1.20;99.90;;;;;;21075466;28;20032;-80
2020/12/07 03:53:52;;;;;;;17.35;9.00;;;1.20;99.90;;;;;;21075736;28;20028;-82
2020/12/07 04:03:59;;;;;;;17.65;9.85;;;1.30;99.90;;;;;;21076078;28;20568;-79
2020/12/07 04:14:01;;;;;;;19.55;8.95;;;1.10;99.90;;;;;;21075255;28;20028;-82
2020/12/07 04:24:01;;;;;;;;;;;1.10;99.90;;;;;;21076468;28;20042;-79
2020/12/07 04:34:02;;;;;;;17.08;10.55;;;1.20;99.90;;;;;;21074137;28;19947;-79
2020/12/07 04:44:03;;;;;;;;;;;1.20;99.90;;;;;;21052286;28;20050;-81
2020/12/07 04:54:04;;;;;;;16.77;8.90;;;1.30;99.90;;;;;;21055525;28;19915;-79
2020/12/07 05:04:05;;;;;;;18.77;10.15;;;1.20;99.90;;;;;;21092405;28;20032;-78
2020/12/07 05:14:10;;;;;;;26.17;12.40;;;1.00;99.90;;;;;;21057055;28;20039;-81
2020/12/07 05:24:11;;;;;;;27.00;13.05;;;0.90;99.90;;;;;;21058709;28;20028;-80
2020/12/07 05:34:12;;;;;;;21.70;10.55;;;0.90;99.90;;;;;;21056817;28;20050;-81
2020/12/07 05:44:12;;;;;;;;;;;1.10;99.90;;;;;;21057544;28;20134;-80
2020/12/07 05:54:15;;;;;;;21.40;10.75;;;1.10;99.90;;;;;;21069899;28;20018;-80
2020/12/07 06:04:18;;;;;;;21.33;10.65;;;1.20;99.90;;;;;;21067883;28;20036;-82
2020/12/07 06:14:20;;;;;;;19.38;10.05;;;1.10;99.90;;;;;;21071997;28;20028;-80
2020/12/07 06:24:22;;;;;;;25.40;11.38;;;1.20;99.90;;;;;;21070818;28;20032;-83
2020/12/07 06:34:23;;;;;;;29.42;12.73;;;1.20;99.90;;;;;;21071753;28;20071;-79
2020/12/07 06:44:24;;;;;;;27.02;11.93;;;1.10;99.90;;;;;;21087568;28;20028;-81
2020/12/07 07:05:00;;;;;;;22.05;10.35;;;2.20;99.90;;;;;;20999932;28;19919;-82
2020/12/07 07:15:03;;;;;;;18.42;8.65;;;2.70;99.90;;;;;;21067422;28;20031;-82
2020/12/07 07:35:05;;;;;;;21.93;12.13;;;4.20;99.90;;;;;;21077831;28;20042;-79
2020/12/07 07:45:07;;;;;;;26.88;12.77;;;2.10;99.90;;;;;;21101355;28;20468;-81
2020/12/07 08:15:49;;;;;;;27.95;14.10;;;2.20;99.90;;;;;;21079834;28;20035;-78
2020/12/07 08:25:51;;;;;;;33.15;11.80;;;2.30;99.90;;;;;;21099059;28;20427;-82
2020/12/07 08:35:54;;;;;;;28.75;11.02;;;2.20;99.90;;;;;;21099651;28;20031;-80
2020/12/07 08:45:55;;;;;;;30.30;11.27;;;2.00;99.90;;;;;;21076942;28;20487;-79
2020/12/07 08:55:56;;;;;;;;;;;1.90;99.90;;;;;;21062303;28;20059;-79
2020/12/07 09:05:59;;;;;;;33.60;12.23;;;1.60;99.90;;;;;;21061285;28;20388;-81
2020/12/07 09:16:01;;;;;;;43.65;15.05;;;1.80;99.90;;;;;;21075113;28;20059;-80
2020/12/07 09:26:03;;;;;;;62.13;18.05;;;1.60;99.90;;;;;;21075223;28;20496;-82
2020/12/07 09:36:05;;;;;;;58.17;16.40;;;1.70;99.90;;;;;;21124477;22;20493;-75
2020/12/07 09:46:06;;;;;;;47.75;15.07;;;1.90;99.90;;;;;;21150347;28;20030;-75
2020/12/07 09:56:07;;;;;;;39.10;13.90;;;2.20;99.90;;;;;;21113822;28;20028;-75
2020/12/07 10:06:08;;;;;;;;;;;2.20;99.90;;;;;;21114591;28;20039;-75
2020/12/07 10:16:10;;;;;;;31.63;12.30;;;2.90;99.90;;;;;;21103627;28;20007;-76
2020/12/07 10:26:10;;;;;;;29.17;12.40;;;3.30;99.90;;;;;;21073399;28;20024;-75
2020/12/07 10:36:12;;;;;;;23.70;11.30;;;3.60;99.90;;;;;;21072864;28;20057;-75
2020/12/07 10:46:13;;;;;;;22.92;11.02;;;3.90;99.90;;;;;;21085410;28;20032;-75
2020/12/07 10:56:15;;;;;;;;;;;4.80;99.90;;;;;;21087561;28;20032;-76
2020/12/07 11:06:51;;;;;;;13.30;7.57;;;7.10;99.90;;;;;;21087516;28;19916;-75
2020/12/07 11:16:43;;;;;;;17.58;10.20;;;7.70;99.90;;;;;;21082532;28;20096;-76
2020/12/07 11:26:43;;;;;;;19.77;10.03;;;5.40;99.90;;;;;;21086063;28;20024;-76
2020/12/07 11:36:44;;;;;;;20.30;10.23;;;4.40;99.90;;;;;;21083917;28;20446;-75
2020/12/07 11:46:53;;;;;;;24.73;12.07;;;3.60;99.90;;;;;;21084523;28;20028;-75
2020/12/07 11:56:53;;;;;;;25.73;12.32;;;3.70;99.90;;;;;;21109883;28;20045;-75
2020/12/07 12:06:54;;;;;;;24.93;13.03;;;3.80;99.90;;;;;;21165638;28;20397;-75
2020/12/07 12:16:56;;;;;;;23.97;11.57;;;3.80;99.90;;;;;;21166188;28;20023;-75
2020/12/07 12:26:57;;;;;;;31.95;13.40;;;3.50;99.90;;;;;;21165327;28;20058;-75
2020/12/07 12:36:58;;;;;;;35.07;16.07;;;3.10;99.90;;;;;;21163048;28;20482;-75
2020/12/07 12:46:58;;;;;;;40.60;17.00;;;3.00;99.90;;;;;;21145438;28;20100;-75
2020/12/07 12:56:59;;;;;;;44.87;17.77;;;2.90;99.90;;;;;;21161737;28;20401;-76
2020/12/07 13:07:00;;;;;;;36.60;15.67;;;3.00;99.90;;;;;;21161933;28;20326;-76
2020/12/07 13:17:10;;;;;;;42.27;15.87;;;3.30;99.90;;;;;;21156402;28;20277;-75
2020/12/07 13:37:32;;;;;;;36.95;15.35;;;4.10;99.90;;;;;;21117936;28;20039;-75
2020/12/07 13:47:33;;;;;;;40.17;16.77;;;4.40;99.90;;;;;;21159249;28;20027;-75
2020/12/07 13:57:34;;;;;;;36.77;16.37;;;4.10;99.90;;;;;;21157698;28;20062;-75
2020/12/07 14:07:35;;;;;;;38.57;17.97;;;3.80;99.90;;;;;;21156810;28;20035;-75
2020/12/07 14:17:41;;;;;;;43.42;18.02;;;3.50;99.90;;;;;;21128696;28;20027;-76
2020/12/07 14:48:05;;;;;;;45.63;16.63;;;3.10;99.90;;;;;;21136427;28;20058;-76
2020/12/07 15:18:16;;;;;;;31.33;13.82;;;3.80;99.90;;;;;;21136052;28;20043;-77
2020/12/07 15:28:17;;;;;;;32.30;14.07;;;3.90;99.90;;;;;;21138852;28;20031;-75
2020/12/07 15:38:18;;;;;;;39.93;16.03;;;3.30;99.90;;;;;;21073319;22;20131;-77
2020/12/07 15:48:20;;;;;;;42.40;15.73;;;3.00;99.90;;;;;;20956696;28;20557;-76
2020/12/07 15:58:21;;;;;;;36.05;14.77;;;2.80;99.90;;;;;;20962034;28;20032;-76
2020/12/07 16:08:25;;;;;;;36.95;14.98;;;2.80;99.90;;;;;;20964350;28;20025;-78
2020/12/07 16:18:26;;;;;;;43.30;16.33;;;2.70;99.90;;;;;;20956457;28;20029;-76
2020/12/07 16:28:27;;;;;;;41.83;15.52;;;2.70;99.90;;;;;;20918769;28;20037;-77
2020/12/07 16:38:28;;;;;;;46.00;16.93;;;2.70;99.90;;;;;;20921973;28;20437;-77
2020/12/07 16:48:29;;;;;;;47.97;17.77;;;2.70;99.90;;;;;;20917520;28;20283;-78
2020/12/07 16:58:29;;;;;;;46.35;18.25;;;2.70;99.90;;;;;;20913493;28;20033;-77
2020/12/07 17:08:30;;;;;;;44.83;18.15;;;2.60;99.90;;;;;;20912201;28;20028;-77
2020/12/07 17:18:31;;;;;;;53.87;19.87;;;2.70;99.90;;;;;;20911245;28;20033;-77
2020/12/07 17:28:32;;;;;;;80.27;27.87;;;2.70;99.90;;;;;;20920449;28;20099;-77
2020/12/07 17:38:33;;;;;;;43.65;20.58;;;2.70;99.90;;;;;;20969571;28;20271;-76
2020/12/07 17:48:33;;;;;;;44.78;18.77;;;2.60;99.90;;;;;;20999130;28;20395;-78
2020/12/07 17:58:34;;;;;;;43.33;18.35;;;2.50;99.90;;;;;;21009899;28;20037;-77
2020/12/07 18:08:36;;;;;;;45.97;20.40;;;2.40;99.90;;;;;;20913182;28;20094;-78
2020/12/07 18:18:38;;;;;;;51.70;20.95;;;2.20;99.90;;;;;;20922410;28;20043;-78
2020/12/07 18:28:39;;;;;;;45.33;19.73;;;2.20;99.90;;;;;;20909467;28;20402;-78
2020/12/07 18:38:40;;;;;;;38.33;17.60;;;2.30;99.90;;;;;;20908625;28;20029;-77
2020/12/07 18:48:41;;;;;;;41.38;17.65;;;2.30;99.90;;;;;;20909177;28;20037;-77
2020/12/07 18:58:42;;;;;;;42.88;19.08;;;2.40;99.90;;;;;;20909464;28;20116;-78
2020/12/07 19:08:43;;;;;;;38.58;16.92;;;2.40;99.90;;;;;;20930414;28;20032;-77
2020/12/07 19:18:44;;;;;;;35.38;16.52;;;2.40;99.90;;;;;;20945179;28;20481;-76
2020/12/07 19:28:45;;;;;;;35.20;15.13;;;2.20;99.90;;;;;;21015374;28;20245;-77
2020/12/07 19:38:45;;;;;;;35.00;15.93;;;2.10;99.90;;;;;;21006573;28;20032;-77
2020/12/07 19:48:46;;;;;;;34.75;15.60;;;2.20;99.90;;;;;;21006283;28;20043;-78
2020/12/07 19:58:47;;;;;;;38.27;18.67;;;2.20;99.90;;;;;;20986926;28;20060;-76
2020/12/07 20:08:48;;;;;;;34.03;16.53;;;2.10;99.90;;;;;;21013122;28;20024;-77
2020/12/07 20:18:49;;;;;;;43.60;17.27;;;1.90;99.90;;;;;;21011961;28;20055;-77
2020/12/07 20:28:50;;;;;;;;;;;1.90;99.90;;;;;;20989287;28;20154;-76
2020/12/07 20:38:51;;;;;;;40.70;17.92;;;1.90;99.90;;;;;;20983471;28;19986;-77
2020/12/07 20:48:53;;;;;;;44.38;18.65;;;2.00;99.90;;;;;;20999734;28;20060;-77
2020/12/07 20:58:54;;;;;;;44.67;18.13;;;2.00;99.90;;;;;;21003387;28;20093;-77
2020/12/07 21:08:54;;;;;;;;;;;1.90;99.90;;;;;;20998540;28;20029;-77
2020/12/07 21:18:55;;;;;;;71.20;23.73;;;1.80;99.90;;;;;;20994930;28;19938;-78
2020/12/07 21:28:56;;;;;;;;;;;1.80;99.90;;;;;;21001326;28;20295;-78
2020/12/07 21:38:57;;;;;;;52.67;20.80;;;1.70;99.90;;;;;;20998037;28;19927;-78
2020/12/07 21:48:57;;;;;;;;;;;1.70;99.90;;;;;;20982252;28;20318;-77
2020/12/07 21:58:58;;;;;;;49.90;20.58;;;1.70;99.90;;;;;;20943578;28;20374;-78
2020/12/07 22:09:00;;;;;;;;;;;1.70;99.90;;;;;;20955152;28;20029;-78
2020/12/07 22:19:04;;;;;;;39.53;17.67;;;1.60;99.90;;;;;;20955454;28;19996;-77
2020/12/07 22:29:04;;;;;;;;;;;1.70;99.90;;;;;;20957278;28;20491;-77
2020/12/07 22:39:05;;;;;;;44.00;18.02;;;1.70;99.90;;;;;;20955705;28;19917;-77
2020/12/07 22:49:06;;;;;;;40.78;16.95;;;1.60;99.90;;;;;;20958318;28;20106;-76
2020/12/07 22:59:08;;;;;;;;;;;1.60;99.90;;;;;;20962557;28;20021;-77
2020/12/07 23:09:09;;;;;;;34.07;16.07;;;1.70;99.90;;;;;;20963945;28;19919;-76
2020/12/07 23:19:10;;;;;;;44.28;18.55;;;1.60;99.90;;;;;;20961261;28;20020;-78
2020/12/07 23:29:11;;;;;;;;;;;1.60;99.90;;;;;;20961080;28;20028;-78
2020/12/07 23:39:11;;;;;;;48.40;19.67;;;1.50;99.90;;;;;;20972757;28;20004;-78
2020/12/07 23:49:12;;;;;;;44.08;19.30;;;1.50;99.90;;;;;;20954122;28;20055;-78
2020/12/07 23:59:13;;;;;;;;;;;1.50;99.90;;;;;;20948591;28;20387;-78
